sim
Sign-in with your pilot id or email,
or register
Callsign
Passwort

Schedule Details

Flight Number: DLH688
Departure: Munich Airport (EDDM) at 10:20
Arrival: Tel Aviv Ben Gurion International Airport (LLBG) at 14:00
Route: Lufthansa Passenger Schedule. Enter filed route here before submitting Pirep.

Weather Information
Getting current METAR information for EDDM 250220Z 23004KT 190V260 9999 -RA FEW008 SCT040 12/12 Q1002 TEMPO RA BKN008
Getting current METAR information for LLBG 250220Z VRB03KT CAVOK 23/18 Q1012 BECMG SCT030

Schedule Frequency

Route Map